Aspendos M — TCZC — position and weather

sailwx.info

Track history (hours):
 
Tides and Currents Weather Stations Pressure Air Temp Water Temp Dewpoint Dewpoint Depression Visibility Wind Speed Wind Dir Waves Ship Positions

Aspendos M

Last reported at 2013-Oct-17 15:21 UTC. Time now 2014-Jul-24 05:58 UTC.
Position N 37°60' E 025°23'.
Warning: this ship's position is months out of date.

Length 122 m; draft 6.6 m.

Type: Cargo ship. MMSI: 271001006.

Date/timePositionNaut miles runAvg speedWind from/ knotsBaromVisibWave heightAir tempDewpointWater temp
2013-Oct-17 15:21N 37°60' E 025°23'0 0.5
2013-Oct-17 14:33N 37°59' E 025°23'0 0.3
2013-Oct-17 13:31N 37°59' E 025°23'1 1.0
2013-Oct-17 12:26N 37°58' E 025°24'1 0.9
2013-Oct-17 11:29N 37°58' E 025°25'1 1.0
2013-Oct-17 10:32N 37°57' E 025°26'1 1.0
2013-Oct-17 09:25N 37°56' E 025°27'1 1.6
2013-Oct-17 08:33N 37°55' E 025°27'3 3.0
2013-Oct-17 07:33N 37°52' E 025°26'3 3.2
2013-Oct-17 06:33N 37°49' E 025°25'3 3.4
2013-Oct-17 05:33N 37°46' E 025°24'4 4.3
2013-Oct-17 04:33N 37°42' E 025°23'5 5.1
2013-Oct-17 03:32N 37°37' E 025°20'6 5.5
2013-Oct-17 02:32N 37°32' E 025°17'6 5.9
2013-Oct-17 01:33N 37°28' E 025°12'6 5.8
2013-Oct-17 00:33N 37°23' E 025°08'6 5.9
2013-Oct-16 23:33N 37°18' E 025°04'6 6.1
2013-Oct-16 22:33N 37°13' E 025°00'6 5.8
2013-Oct-16 21:34N 37°08' E 024°57'5 5.3
2013-Oct-16 20:33N 37°03' E 024°54'5 5.5
2013-Oct-16 19:33N 36°58' E 024°51'5 5.4
2013-Oct-16 18:33N 36°53' E 024°48'5 5.3
2013-Oct-16 17:33N 36°48' E 024°45'5 5.4
2013-Oct-16 16:33N 36°44' E 024°42'5 5.2
2013-Oct-16 15:34N 36°39' E 024°39'5 5.1
2013-Oct-16 14:33N 36°35' E 024°35'5 5.3
2013-Oct-16 13:33N 36°31' E 024°30'5 5.3
2013-Oct-16 12:33N 36°29' E 024°25'6 5.4
2013-Oct-16 11:27N 36°26' E 024°18'5 5.5
2013-Oct-16 10:29N 36°24' E 024°12'7 6.0
2013-Oct-16 09:22N 36°20' E 024°05'5 5.7
2013-Oct-16 08:32N 36°18' E 023°60'6 5.7
2013-Oct-16 07:33N 36°14' E 023°54'6 5.8
2013-Oct-16 06:28N 36°11' E 023°48'6 6.1
2013-Oct-16 05:33N 36°07' E 023°42'5 5.5
2013-Oct-16 04:33N 36°04' E 023°37'5 5.5
2013-Oct-16 03:34N 35°59' E 023°34'6 5.4
2013-Oct-16 02:32N 35°54' E 023°31'5 5.5
2013-Oct-16 01:32N 35°49' E 023°28'16 5.2
2013-Oct-15 22:27N 35°36' E 023°17'5 4.9
2013-Oct-15 21:30N 35°32' E 023°13'5 4.9
2013-Oct-15 20:31N 35°28' E 023°10'5 4.8
2013-Oct-15 19:32N 35°25' E 023°05'5 4.9
2013-Oct-15 18:33N 35°21' E 023°02'5 4.9
2013-Oct-15 17:33N 35°17' E 022°58'6 4.9
2013-Oct-15 16:18N 35°13' E 022°53'4 5.2
2013-Oct-15 15:31N 35°09' E 022°50'5 5.2
2013-Oct-15 14:29N 35°05' E 022°46'64 5.2
2013-Oct-15 02:15N 34°15' E 021°58'4 5.2
2013-Oct-15 01:33N 34°12' E 021°55'5 4.8
2013-Oct-15 00:33N 34°08' E 021°52'20 4.5
2013-Oct-14 20:07N 33°53' E 021°36'  
Track history (hours):
 
Tides and Currents Weather Stations Pressure Air Temp Water Temp Dewpoint Dewpoint Depression Visibility Wind Speed Wind Dir Waves Ship Positions

Aspendos M

Last reported at 2013-Oct-17 15:21 UTC. Time now 2014-Jul-24 05:58 UTC.
Position N 37°60' E 025°23'.
Warning: this ship's position is months out of date.

Length 122 m; draft 6.6 m.

Type: Cargo ship. MMSI: 271001006.

Date/timePositionNaut miles runAvg speedWind from/ knotsBaromVisibWave heightAir tempDewpointWater temp
2013-Oct-17 15:21N 37°60' E 025°23'0 0.5
2013-Oct-17 14:33N 37°59' E 025°23'0 0.3
2013-Oct-17 13:31N 37°59' E 025°23'1 1.0
2013-Oct-17 12:26N 37°58' E 025°24'1 0.9
2013-Oct-17 11:29N 37°58' E 025°25'1 1.0
2013-Oct-17 10:32N 37°57' E 025°26'1 1.0
2013-Oct-17 09:25N 37°56' E 025°27'1 1.6
2013-Oct-17 08:33N 37°55' E 025°27'3 3.0
2013-Oct-17 07:33N 37°52' E 025°26'3 3.2
2013-Oct-17 06:33N 37°49' E 025°25'3 3.4
2013-Oct-17 05:33N 37°46' E 025°24'4 4.3
2013-Oct-17 04:33N 37°42' E 025°23'5 5.1
2013-Oct-17 03:32N 37°37' E 025°20'6 5.5
2013-Oct-17 02:32N 37°32' E 025°17'6 5.9
2013-Oct-17 01:33N 37°28' E 025°12'6 5.8
2013-Oct-17 00:33N 37°23' E 025°08'6 5.9
2013-Oct-16 23:33N 37°18' E 025°04'6 6.1
2013-Oct-16 22:33N 37°13' E 025°00'6 5.8
2013-Oct-16 21:34N 37°08' E 024°57'5 5.3
2013-Oct-16 20:33N 37°03' E 024°54'5 5.5
2013-Oct-16 19:33N 36°58' E 024°51'5 5.4
2013-Oct-16 18:33N 36°53' E 024°48'5 5.3
2013-Oct-16 17:33N 36°48' E 024°45'5 5.4
2013-Oct-16 16:33N 36°44' E 024°42'5 5.2
2013-Oct-16 15:34N 36°39' E 024°39'5 5.1
2013-Oct-16 14:33N 36°35' E 024°35'5 5.3
2013-Oct-16 13:33N 36°31' E 024°30'5 5.3
2013-Oct-16 12:33N 36°29' E 024°25'6 5.4
2013-Oct-16 11:27N 36°26' E 024°18'5 5.5
2013-Oct-16 10:29N 36°24' E 024°12'7 6.0
2013-Oct-16 09:22N 36°20' E 024°05'5 5.7
2013-Oct-16 08:32N 36°18' E 023°60'6 5.7
2013-Oct-16 07:33N 36°14' E 023°54'6 5.8
2013-Oct-16 06:28N 36°11' E 023°48'6 6.1
2013-Oct-16 05:33N 36°07' E 023°42'5 5.5
2013-Oct-16 04:33N 36°04' E 023°37'5 5.5
2013-Oct-16 03:34N 35°59' E 023°34'6 5.4
2013-Oct-16 02:32N 35°54' E 023°31'5 5.5
2013-Oct-16 01:32N 35°49' E 023°28'16 5.2
2013-Oct-15 22:27N 35°36' E 023°17'5 4.9
2013-Oct-15 21:30N 35°32' E 023°13'5 4.9
2013-Oct-15 20:31N 35°28' E 023°10'5 4.8
2013-Oct-15 19:32N 35°25' E 023°05'5 4.9
2013-Oct-15 18:33N 35°21' E 023°02'5 4.9
2013-Oct-15 17:33N 35°17' E 022°58'6 4.9
2013-Oct-15 16:18N 35°13' E 022°53'4 5.2
2013-Oct-15 15:31N 35°09' E 022°50'5 5.2
2013-Oct-15 14:29N 35°05' E 022°46'64 5.2
2013-Oct-15 02:15N 34°15' E 021°58'4 5.2
2013-Oct-15 01:33N 34°12' E 021°55'5 4.8
2013-Oct-15 00:33N 34°08' E 021°52'20 4.5
2013-Oct-14 20:07N 33°53' E 021°36'  

Dump ship's entire track history